^^
Lisbon, NH - Weather Station Historical Data
Daily Summary for June 19, 2021 Units:  English    Metric   Both
Daily Weekly Monthly Yearly
  High: Low: Average:
Temperature: 82 °F 60.9 °F 71.1 °F
Dew Point: 67.4 °F 50.4 °F 60.5 °F
Humidity: 100% 34.1% 74%
Wind Speed: 6.1mph 0mph 0.8mph
Wind Gust: 15mph - -
Wind- - SW
Pressure: 29.69 in 29.55 in -
Precipitation: 0.23 in    
 
 
Tabular Data for June 19, 2021
Time Temperature Dew Point Pressure Wind Wind Speed Wind Gust Humidity Rainfall Rate (Hourly) solar
00:04 62.9 °F 62 °F 29.69 in Calm     97% 0.01 in 0 W/m2
00:09 62.7 °F 61.8 °F 29.69 in Calm     97% 0.00 in 0 W/m2
00:14 62.7 °F 61.8 °F 29.69 in Calm     97% 0.00 in 0 W/m2
00:19 62.7 °F 62.1 °F 29.69 in Calm     98% 0.00 in 0 W/m2
00:24 62.7 °F 62.1 °F 29.69 in Calm     98% 0.00 in 0 W/m2
00:29 62.7 °F 62.1 °F 29.69 in Calm     98% 0.00 in 0 W/m2
00:34 62.7 °F 62.1 °F 29.68 in Calm     98% 0.00 in 0 W/m2
00:39 62.7 °F 62.1 °F 29.68 in Calm     98% 0.00 in 0 W/m2
00:44 62.7 °F 62.1 °F 29.68 in Calm     98% 0.00 in 0 W/m2
00:49 62.7 °F 62.1 °F 29.67 in Calm     98% 0.00 in 0 W/m2
00:54 62.7 °F 62.2 °F 29.67 in Calm     98.3% 0.00 in 0 W/m2
00:59 62.6 °F 62.3 °F 29.67 in Calm     99% 0.00 in 0 W/m2
01:04 62.6 °F 62.3 °F 29.67 in Calm     99% 0.00 in 0 W/m2
01:09 62.6 °F 62.4 °F 29.67 in WSW 0.1 mph 1 mph 99% 0.00 in 0 W/m2
01:14 62.9 °F 62.6 °F 29.67 in WSW 0.5 mph 1 mph 99% 0.00 in 0 W/m2
01:19 62.9 °F 62.6 °F 29.67 in Calm   1 mph 99% 0.00 in 0 W/m2
01:24 62.9 °F 62.6 °F 29.67 in Calm     99% 0.00 in 0 W/m2
01:29 62.9 °F 62.6 °F 29.67 in Calm     99% 0.00 in 0 W/m2
01:34 62.9 °F 62.6 °F 29.67 in Calm     99% 0.00 in 0 W/m2
01:39 62.9 °F 62.6 °F 29.67 in Calm     99% 0.00 in 0 W/m2
01:44 62.9 °F 62.6 °F 29.67 in Calm     99% 0.00 in 0 W/m2
01:49 62.9 °F 62.6 °F 29.66 in Calm     99% 0.00 in 0 W/m2
01:54 62.9 °F 62.8 °F 29.66 in Calm     99.6% 0.00 in 0 W/m2
01:59 62.9 °F 62.9 °F 29.66 in Calm     99.9% 0.00 in 0 W/m2
02:04 62.9 °F 62.9 °F 29.66 in Calm     100% 0.00 in 0 W/m2
02:09 62.9 °F 62.9 °F 29.66 in Calm     100% 0.00 in 0 W/m2
02:14 62.9 °F 62.9 °F 29.66 in Calm     100% 0.00 in 0 W/m2
02:19 62.8 °F 62.8 °F 29.66 in Calm     100% 0.00 in 0 W/m2
02:24 62.7 °F 62.7 °F 29.66 in Calm     100% 0.00 in 0 W/m2
02:29 62.7 °F 62.7 °F 29.66 in Calm     100% 0.00 in 0 W/m2
02:34 62.7 °F 62.7 °F 29.65 in Calm     100% 0.00 in 0 W/m2
02:39 62.6 °F 62.6 °F 29.65 in Calm     100% 0.00 in 0 W/m2
02:44 62.6 °F 62.6 °F 29.65 in Calm     100% 0.00 in 0 W/m2
02:49 62.5 °F 62.5 °F 29.64 in Calm     100% 0.00 in 0 W/m2
02:54 62.4 °F 62.2 °F 29.64 in Calm     99.4% 0.00 in 0 W/m2
02:59 62.2 °F 61.9 °F 29.64 in Calm     99% 0.00 in 0 W/m2
03:04 62 °F 61.8 °F 29.64 in Calm     99.1% 0.00 in 0 W/m2
03:09 62 °F 62 °F 29.64 in Calm     100% 0.00 in 0 W/m2
03:14 61.8 °F 61.7 °F 29.64 in Calm     99.7% 0.00 in 0 W/m2
03:19 61.7 °F 61.5 °F 29.63 in Calm     99.3% 0.00 in 0 W/m2
03:24 61.6 °F 61.6 °F 29.63 in Calm     100% 0.00 in 0 W/m2
03:29 61.5 °F 61.5 °F 29.63 in Calm     100% 0.00 in 0 W/m2
03:34 61.5 °F 61.5 °F 29.61 in Calm     100% 0.00 in 0 W/m2
03:39 61.4 °F 61.4 °F 29.61 in Calm     100% 0.00 in 0 W/m2
03:44 61.3 °F 61.3 °F 29.61 in Calm     100% 0.00 in 0 W/m2
03:49 61.3 °F 61.3 °F 29.61 in Calm     100% 0.00 in 0 W/m2
03:54 61.2 °F 61.2 °F 29.61 in Calm     100% 0.00 in 0 W/m2
03:59 61 °F 61 °F 29.61 in Calm     100% 0.00 in 0 W/m2
04:04 61 °F 61 °F 29.61 in Calm     100% 0.00 in 0 W/m2
04:09 60.9 °F 60.9 °F 29.61 in Calm     100% 0.00 in 0 W/m2
04:14 60.9 °F 60.9 °F 29.61 in Calm     100% 0.00 in 0 W/m2
04:19 60.9 °F 60.9 °F 29.61 in Calm     100% 0.00 in 0 W/m2
04:24 60.9 °F 60.9 °F 29.61 in Calm     100% 0.00 in 0 W/m2
04:29 61 °F 61 °F 29.61 in Calm     100% 0.00 in 0 W/m2
04:34 61 °F 61 °F 29.61 in Calm     100% 0.00 in 0 W/m2
04:39 61.1 °F 61.1 °F 29.61 in SW 0.3 mph 2 mph 100% 0.00 in 0 W/m2
04:44 61.2 °F 61.2 °F 29.61 in SW 0.2 mph 2 mph 100% 0.00 in 0 W/m2
04:49 61.2 °F 61.2 °F 29.61 in Calm   2 mph 100% 0.00 in 0 W/m2
04:54 61.2 °F 61.2 °F 29.61 in Calm     100% 0.00 in 0 W/m2
04:59 61.3 °F 61.3 °F 29.61 in Calm     100% 0.00 in 0 W/m2
05:04 61.3 °F 61.3 °F 29.61 in Calm     100% 0.00 in 0 W/m2
05:09 61.3 °F 61.3 °F 29.61 in Calm     100% 0.00 in 0 W/m2
05:14 61.3 °F 61.3 °F 29.62 in Calm   1 mph 100% 0.00 in 0 W/m2
05:19 61.4 °F 61.4 °F 29.62 in SW 0.5 mph 2 mph 100% 0.00 in 0 W/m2
05:24 61.5 °F 61.5 °F 29.62 in SW 0.2 mph 1 mph 100% 0.00 in 0 W/m2
05:29 61.5 °F 61.5 °F 29.63 in SW 0.1 mph 1 mph 100% 0.01 in 0 W/m2
05:34 61.5 °F 61.5 °F 29.63 in Calm   1 mph 100% 0.03 in 0 W/m2
05:39 61.6 °F 61.6 °F 29.63 in Calm     100% 0.05 in 5 W/m2
05:44 61.6 °F 61.6 °F 29.64 in SW 0.1 mph 1 mph 100% 0.07 in 5 W/m2
05:49 61.6 °F 61.6 °F 29.64 in Calm     100% 0.15 in 5 W/m2
05:54 61.6 °F 61.6 °F 29.64 in SW 0.2 mph 1 mph 100% 0.17 in 7 W/m2
05:59 61.6 °F 61.6 °F 29.64 in Calm   1 mph 100% 0.19 in 7 W/m2
06:04 61.6 °F 61.6 °F 29.64 in Calm     100% 0.19 in 9 W/m2
06:09 61.5 °F 61.5 °F 29.64 in Calm     100% 0.21 in 11 W/m2
06:14 61.5 °F 61.5 °F 29.64 in Calm     100% 0.23 in 7 W/m2
06:19 61.5 °F 61.5 °F 29.64 in SW 0.2 mph 2 mph 100% 0.23 in 9 W/m2
06:24 61.5 °F 61.5 °F 29.64 in Calm   2 mph 100% 0.23 in 28 W/m2
06:29 61.5 °F 61.5 °F 29.64 in WSW 0.1 mph 1 mph 100% 0.23 in 40 W/m2
06:34 61.6 °F 61.6 °F 29.63 in Calm     100% 0.23 in 56 W/m2
06:39 61.6 °F 61.6 °F 29.63 in Calm     100% 0.22 in 77 W/m2
06:44 61.8 °F 61.8 °F 29.63 in Calm     100% 0.22 in 86 W/m2
06:49 62.1 °F 62.1 °F 29.63 in Calm     100% 0.18 in 91 W/m2
06:54 62.4 °F 62.4 °F 29.63 in Calm     100% 0.18 in 91 W/m2
06:59 62.4 °F 62.4 °F 29.63 in Calm     100% 0.08 in 83 W/m2
07:04 62.4 °F 62.4 °F 29.62 in Calm     100% 0.08 in 70 W/m2
07:09 62.4 °F 62.4 °F 29.62 in Calm     100% 0.04 in 48 W/m2
07:14 62.4 °F 62.4 °F 29.63 in WSW 0.1 mph 1 mph 100% 0.04 in 53 W/m2
07:19 62.4 °F 62.4 °F 29.63 in Calm     100% 0.02 in 56 W/m2
07:24 62.4 °F 62.4 °F 29.63 in WSW 0.1 mph 1 mph 100% 0.02 in 76 W/m2
07:29 62.4 °F 62.4 °F 29.63 in Calm   1 mph 100% 0.00 in 104 W/m2
07:34 62.6 °F 62.6 °F 29.63 in WSW 0.2 mph 1 mph 100% 0.00 in 146 W/m2
07:39 62.9 °F 62.9 °F 29.63 in WSW 0.2 mph 1 mph 100% 0.00 in 183 W/m2
07:44 63.1 °F 63.1 °F 29.63 in WSW 0.1 mph 1 mph 100% 0.00 in 199 W/m2
07:49 63.3 °F 63.3 °F 29.63 in WSW 0.2 mph 1 mph 100% 0.00 in 146 W/m2
07:54 63.4 °F 63.4 °F 29.63 in Calm   1 mph 100% 0.00 in 146 W/m2
07:59 63.4 °F 63.4 °F 29.63 in Calm     100% 0.00 in 139 W/m2
08:04 63.8 °F 63.8 °F 29.63 in Calm     100% 0.00 in 528 W/m2
08:09 64.5 °F 64.5 °F 29.63 in WSW 0.2 mph 1 mph 100% 0.00 in 512 W/m2
08:14 65.4 °F 65.4 °F 29.63 in WNW 0.2 mph 2 mph 100% 0.00 in 535 W/m2
08:19 66.1 °F 66.1 °F 29.63 in WSW 0.3 mph 2 mph 100% 0.00 in 612 W/m2
08:24 66.7 °F 66.7 °F 29.63 in SW 0.1 mph 2 mph 100% 0.00 in 625 W/m2
08:29 66.8 °F 66.8 °F 29.63 in WSW 0.3 mph 1 mph 100% 0.00 in 651 W/m2
08:34 66.9 °F 66.9 °F 29.63 in WNW 0.5 mph 5 mph 100% 0.00 in 691 W/m2
08:39 67.3 °F 67.3 °F 29.63 in West 0.6 mph 2 mph 100% 0.00 in 691 W/m2
08:44 67.6 °F 67.3 °F 29.63 in NNW 0.1 mph 1 mph 98.7% 0.00 in 628 W/m2
08:49 68 °F 67.4 °F 29.62 in WSW 0.3 mph 2 mph 97.9% 0.00 in 632 W/m2
08:54 68.6 °F 67.1 °F 29.62 in NNW 0.2 mph 1 mph 95.3% 0.00 in 644 W/m2
08:59 69 °F 66.9 °F 29.62 in WSW 0.9 mph 3 mph 93% 0.00 in 660 W/m2
09:04 69.9 °F 67 °F 29.62 in West 0.2 mph 2 mph 90.5% 0.00 in 677 W/m2
09:09 70.6 °F 66.8 °F 29.62 in WNW 0.2 mph 1 mph 87.9% 0.00 in 690 W/m2
09:14 71 °F 66.5 °F 29.63 in NW 0.4 mph 2 mph 85.6% 0.00 in 706 W/m2
09:19 71.3 °F 66.1 °F 29.63 in NW 0.7 mph 2 mph 83.7% 0.00 in 720 W/m2
09:24 71.6 °F 66.1 °F 29.63 in SW 1.7 mph 6 mph 82.6% 0.00 in 737 W/m2
09:29 72.2 °F 66 °F 29.63 in SW 1.1 mph 6 mph 80.9% 0.00 in 751 W/m2
09:34 72.7 °F 65.4 °F 29.63 in SW 1.7 mph 7 mph 78.1% 0.00 in 758 W/m2
09:39 73.2 °F 66 °F 29.63 in SSW 1.2 mph 6 mph 78.3% 0.00 in 743 W/m2
09:44 73.7 °F 65.9 °F 29.63 in SW 3 mph 7 mph 76.7% 0.00 in 695 W/m2
09:49 74.2 °F 66.1 °F 29.62 in SSW 1 mph 5 mph 76% 0.00 in 781 W/m2
09:54 74.6 °F 66.2 °F 29.62 in SW 2 mph 10 mph 74.9% 0.00 in 774 W/m2
09:59 74.7 °F 65.6 °F 29.62 in SW 3.9 mph 10 mph 73.2% 0.00 in 827 W/m2
10:04 74.6 °F 65.7 °F 29.62 in SSW 2.5 mph 7 mph 73.8% 0.00 in 808 W/m2
10:09 74.8 °F 66 °F 29.62 in SSW 0.8 mph 6 mph 74.1% 0.00 in 808 W/m2
10:14 75.2 °F 66.1 °F 29.62 in SW 2.9 mph 8 mph 73.4% 0.00 in 823 W/m2
10:19 75.4 °F 66 °F 29.62 in SW 1.6 mph 6 mph 72.7% 0.00 in 864 W/m2
10:24 75.7 °F 66.1 °F 29.62 in SW 2.7 mph 7 mph 72.1% 0.00 in 897 W/m2
10:29 76.1 °F 65.8 °F 29.62 in SW 2.7 mph 7 mph 70.6% 0.00 in 889 W/m2
10:34 76.4 °F 66 °F 29.61 in SSW 1.2 mph 4 mph 70.2% 0.00 in 911 W/m2
10:39 76.9 °F 66.1 °F 29.61 in South 2.8 mph 7 mph 69.2% 0.00 in 911 W/m2
10:44 76.9 °F 65.9 °F 29.61 in SSW 3.4 mph 7 mph 68.9% 0.00 in 859 W/m2
10:49 77.3 °F 66.7 °F 29.61 in SSW 1.8 mph 5 mph 69.9% 0.00 in 910 W/m2
10:54 77.5 °F 66.1 °F 29.61 in SSW 2.5 mph 7 mph 67.8% 0.00 in 862 W/m2
10:59 77.4 °F 65.7 °F 29.61 in SSW 3.3 mph 8 mph 67.1% 0.00 in 815 W/m2
11:04 77.5 °F 66.2 °F 29.60 in SSW 1.6 mph 7 mph 68.3% 0.00 in 906 W/m2
11:09 78 °F 66.3 °F 29.60 in SW 2.9 mph 8 mph 67.2% 0.00 in 892 W/m2
11:14 78.1 °F 65.9 °F 29.60 in SSW 2.5 mph 8 mph 66.1% 0.00 in 927 W/m2
11:19 78.4 °F 66.3 °F 29.59 in SW 1.9 mph 5 mph 66.3% 0.00 in 992 W/m2
11:24 79.1 °F 65.9 °F 29.59 in SSW 2.4 mph 6 mph 64% 0.00 in 992 W/m2
11:29 79.7 °F 64.8 °F 29.59 in SW 2.3 mph 6 mph 60.3% 0.00 in 1005 W/m2
11:34 79.9 °F 64.2 °F 29.59 in SW 2.6 mph 7 mph 58.7% 0.00 in 936 W/m2
11:39 80.1 °F 65.3 °F 29.59 in WSW 0.5 mph 2 mph 60.6% 0.00 in 936 W/m2
11:44 80 °F 64.3 °F 29.59 in Calm   1 mph 58.8% 0.00 in 158 W/m2
11:49 79.5 °F 64.1 °F 29.59 in SW 1.9 mph 5 mph 59.5% 0.00 in 1126 W/m2
11:54 79.7 °F 64.5 °F 29.59 in SW 2.8 mph 8 mph 59.8% 0.00 in 1126 W/m2
11:59 79.8 °F 62.9 °F 29.59 in WSW 2 mph 8 mph 56.3% 0.00 in 255 W/m2
12:04 79.4 °F 63.3 °F 29.59 in SW 0.9 mph 8 mph 57.9% 0.00 in 1168 W/m2
12:09 79.8 °F 64 °F 29.59 in SW 0.9 mph 3 mph 58.7% 0.00 in 1168 W/m2
12:14 79.9 °F 63.4 °F 29.59 in NNE 0.8 mph 3 mph 57.3% 0.00 in 1198 W/m2
12:19 80.4 °F 63.9 °F 29.59 in SW 0.7 mph 4 mph 57.2% 0.00 in 1198 W/m2
12:24 81.2 °F 63.8 °F 29.59 in SW 2.7 mph 8 mph 55.6% 0.00 in 1170 W/m2
12:29 81.4 °F 61.9 °F 29.59 in SW 2.5 mph 8 mph 51.6% 0.00 in 1168 W/m2
12:34 81.1 °F 61.3 °F 29.58 in SW 3.3 mph 11 mph 51% 0.00 in 216 W/m2
12:39 80.9 °F 58.9 °F 29.58 in SW 3.5 mph 11 mph 47.2% 0.00 in 1086 W/m2
12:44 81.2 °F 59.4 °F 29.58 in South 2.8 mph 9 mph 47.5% 0.00 in 1218 W/m2
12:49 81.5 °F 58.8 °F 29.58 in SW 3 mph 8 mph 46.1% 0.00 in 1218 W/m2
12:54 81.3 °F 57.4 °F 29.58 in NNW 1.1 mph 5 mph 44.2% 0.00 in 222 W/m2
12:59 81.7 °F 57 °F 29.58 in WSW 1 mph 4 mph 43% 0.00 in 361 W/m2
13:04 81.8 °F 56.8 °F 29.58 in WSW 0.4 mph 3 mph 42.5% 0.00 in 366 W/m2
13:09 81.6 °F 56.6 °F 29.58 in SW 1.8 mph 6 mph 42.5% 0.00 in 243 W/m2
13:14 81.1 °F 55.6 °F 29.58 in SW 1.4 mph 5 mph 41.6% 0.00 in 229 W/m2
13:19 80.6 °F 54.6 °F 29.58 in SW 2.1 mph 5 mph 40.8% 0.00 in 364 W/m2
13:24 80.2 °F 55.6 °F 29.58 in SW 1.5 mph 6 mph 42.8% 0.00 in 297 W/m2
13:29 79.8 °F 55.3 °F 29.58 in SW 2.7 mph 11 mph 42.9% 0.00 in 297 W/m2
13:34 79.4 °F 55.3 °F 29.58 in SW 1.9 mph 11 mph 43.6% 0.00 in 452 W/m2
13:39 79.2 °F 54.4 °F 29.58 in SW 3.8 mph 10 mph 42.3% 0.00 in 452 W/m2
13:44 79.2 °F 55.2 °F 29.58 in SW 2 mph 10 mph 43.7% 0.00 in 452 W/m2
13:49 79.2 °F 55 °F 29.58 in SW 1.3 mph 10 mph 43.4% 0.00 in 1123 W/m2
13:54 79.8 °F 54.1 °F 29.58 in SW 3 mph 12 mph 41.1% 0.00 in 1068 W/m2
13:59 80.7 °F 53.4 °F 29.59 in SW 5 mph 13 mph 38.9% 0.00 in 1043 W/m2
14:04 81.2 °F 53.1 °F 29.59 in SW 3.5 mph 13 mph 37.9% 0.00 in 1040 W/m2
14:09 81.5 °F 53.6 °F 29.59 in SSW 4.1 mph 12 mph 38.3% 0.00 in 970 W/m2
14:14 81.8 °F 53.5 °F 29.59 in SW 6.1 mph 15 mph 37.8% 0.00 in 945 W/m2
14:19 81.8 °F 53.8 °F 29.58 in SW 3.8 mph 15 mph 38% 0.00 in 952 W/m2
14:24 81.7 °F 54.6 °F 29.58 in SW 2.9 mph 12 mph 39.3% 0.00 in 952 W/m2
14:29 81.1 °F 54.1 °F 29.58 in SW 3.8 mph 11 mph 39.4% 0.00 in 252 W/m2
14:34 80.5 °F 54.2 °F 29.58 in SW 4.6 mph 10 mph 40.3% 0.00 in 213 W/m2
14:39 79.9 °F 55.3 °F 29.58 in WSW 1.4 mph 6 mph 42.8% 0.00 in 250 W/m2
14:44 79.6 °F 55.8 °F 29.58 in SW 2 mph 6 mph 44% 0.00 in 269 W/m2
14:49 79.8 °F 56.2 °F 29.58 in SW 2 mph 6 mph 44.4% 0.00 in 215 W/m2
14:54 80.1 °F 55.9 °F 29.58 in SSW 1.5 mph 5 mph 43.5% 0.00 in 202 W/m2
14:59 80.4 °F 55.4 °F 29.58 in SSW 3 mph 11 mph 42.3% 0.00 in 216 W/m2
15:04 80.5 °F 55.3 °F 29.57 in West 0.7 mph 6 mph 42% 0.00 in 181 W/m2
15:09 80.5 °F 56.5 °F 29.57 in WSW 1.2 mph 5 mph 43.9% 0.00 in 199 W/m2
15:14 80.5 °F 56 °F 29.57 in WNW 1 mph 3 mph 43.1% 0.00 in 206 W/m2
15:19 80.3 °F 55 °F 29.57 in NNW 0.4 mph 2 mph 41.8% 0.00 in 176 W/m2
15:24 80.3 °F 57.3 °F 29.57 in NW 0.1 mph 1 mph 45.4% 0.00 in 137 W/m2
15:29 80 °F 56.6 °F 29.57 in WSW 0.6 mph 2 mph 44.7% 0.00 in 178 W/m2
15:34 79.8 °F 55.3 °F 29.56 in SW 2.2 mph 8 mph 42.9% 0.00 in 188 W/m2
15:39 79.9 °F 55.3 °F 29.56 in SW 2.3 mph 8 mph 42.9% 0.00 in 213 W/m2
15:44 79.9 °F 55.3 °F 29.56 in WSW 1.5 mph 6 mph 42.7% 0.00 in 213 W/m2
15:49 79.8 °F 55.8 °F 29.56 in WSW 0.1 mph 1 mph 43.7% 0.00 in 202 W/m2
15:54 79.8 °F 55.5 °F 29.56 in SSW 1.1 mph 6 mph 43.3% 0.00 in 197 W/m2
15:59 79.9 °F 56.1 °F 29.56 in SSW 1.2 mph 6 mph 44.1% 0.00 in 197 W/m2
16:04 80.4 °F 54.7 °F 29.56 in South 1.9 mph 6 mph 41.3% 0.00 in 116 W/m2
16:09 80.8 °F 53 °F 29.56 in WSW 1.4 mph 7 mph 38.2% 0.00 in 183 W/m2
16:14 81.2 °F 50.8 °F 29.56 in West 2 mph 5 mph 34.8% 0.00 in 164 W/m2
16:19 81.7 °F 51.5 °F 29.55 in SSW 0.9 mph 4 mph 35.1% 0.00 in 155 W/m2
16:24 81.9 °F 52.4 °F 29.55 in South 1.5 mph 7 mph 36% 0.00 in 185 W/m2
16:29 82 °F 52.8 °F 29.55 in WSW 1.4 mph 7 mph 36.5% 0.00 in 243 W/m2
16:34 81.9 °F 52.7 °F 29.55 in WSW 1.3 mph 7 mph 36.5% 0.00 in 160 W/m2
16:39 81.8 °F 52.1 °F 29.55 in WSW 1.3 mph 6 mph 35.9% 0.00 in 144 W/m2
16:44 81.4 °F 50.4 °F 29.55 in SW 1.9 mph 10 mph 34.1% 0.00 in 123 W/m2
16:49 81.1 °F 50.5 °F 29.55 in WSW 0.9 mph 8 mph 34.5% 0.00 in 172 W/m2
16:54 80.9 °F 51.3 °F 29.55 in SW 0.4 mph 2 mph 35.8% 0.00 in 141 W/m2
16:59 80.7 °F 51.7 °F 29.55 in SSW 0.6 mph 3 mph 36.5% 0.00 in 106 W/m2
17:04 80.4 °F 51.2 °F 29.55 in WNW 1.6 mph 5 mph 36.2% 0.00 in 107 W/m2
17:09 80.1 °F 53 °F 29.55 in ENE 1.6 mph 5 mph 39.1% 0.00 in 148 W/m2
17:14 79.7 °F 55 °F 29.56 in ENE 4.4 mph 14 mph 42.8% 0.00 in 121 W/m2
17:19 79.2 °F 56.1 °F 29.56 in ENE 3.8 mph 7 mph 45.1% 0.00 in 88 W/m2
17:24 78.9 °F 56.5 °F 29.56 in ENE 1.9 mph 6 mph 46.2% 0.00 in 113 W/m2
17:29 78.7 °F 56.8 °F 29.56 in East 1.4 mph 5 mph 47% 0.00 in 160 W/m2
17:34 78.6 °F 56.9 °F 29.56 in ESE 1.6 mph 6 mph 47.4% 0.00 in 160 W/m2
17:39 78.5 °F 55.7 °F 29.56 in SSE 0.3 mph 3 mph 45.5% 0.00 in 158 W/m2
17:44 78.5 °F 54.8 °F 29.56 in East 1.8 mph 8 mph 44% 0.00 in 153 W/m2
17:49 78.5 °F 56.4 °F 29.56 in SSE 0.3 mph 3 mph 46.6% 0.00 in 135 W/m2
17:54 78.3 °F 55.1 °F 29.56 in WNW 1.1 mph 4 mph 44.7% 0.00 in 111 W/m2
17:59 78.1 °F 54.5 °F 29.57 in SE 0.5 mph 2 mph 44.2% 0.00 in 137 W/m2
18:04 78.1 °F 54.7 °F 29.57 in South 1.1 mph 3 mph 44.5% 0.00 in 128 W/m2
18:09 78 °F 55.6 °F 29.57 in ESE 1.5 mph 6 mph 46.2% 0.00 in 121 W/m2
18:14 77.9 °F 54.9 °F 29.58 in NNW 1.6 mph 5 mph 45% 0.00 in 121 W/m2
18:19 77.9 °F 55.3 °F 29.58 in SE 1.2 mph 3 mph 45.7% 0.00 in 120 W/m2
18:24 77.9 °F 55.1 °F 29.58 in South 1.3 mph 5 mph 45.3% 0.00 in 118 W/m2
18:29 77.7 °F 54.8 °F 29.58 in West 0.3 mph 5 mph 45.1% 0.00 in 125 W/m2
18:34 77.7 °F 55.1 °F 29.57 in SW 0.2 mph 1 mph 45.7% 0.00 in 91 W/m2
18:39 77.7 °F 55.4 °F 29.57 in SSW 0.6 mph 3 mph 46.2% 0.00 in 83 W/m2
18:44 77.5 °F 56 °F 29.58 in SSE 0.1 mph 2 mph 47.5% 0.00 in 81 W/m2
18:49 77.3 °F 56.4 °F 29.58 in SSW 0.6 mph 2 mph 48.5% 0.00 in 63 W/m2
18:54 77.1 °F 56.3 °F 29.58 in SSW 0.6 mph 2 mph 48.6% 0.00 in 84 W/m2
18:59 76.8 °F 56.6 °F 29.58 in West 0.4 mph 2 mph 49.7% 0.00 in 100 W/m2
19:04 76.7 °F 56.2 °F 29.58 in SW 0.2 mph 2 mph 49.2% 0.00 in 84 W/m2
19:09 76.7 °F 56.4 °F 29.58 in Calm   1 mph 49.5% 0.00 in 56 W/m2
19:14 76.6 °F 58 °F 29.58 in WNW 0.1 mph 1 mph 52.6% 0.00 in 58 W/m2
19:19 76.4 °F 59.9 °F 29.58 in Calm     56.7% 0.00 in 56 W/m2
19:24 76 °F 60.6 °F 29.58 in SE 0.2 mph 2 mph 58.8% 0.00 in 49 W/m2
19:29 75.5 °F 60.6 °F 29.58 in Calm   2 mph 59.7% 0.00 in 48 W/m2
19:34 75.1 °F 60.5 °F 29.58 in Calm     60.5% 0.00 in 49 W/m2
19:39 74.6 °F 60.3 °F 29.58 in Calm     61.1% 0.00 in 40 W/m2
19:44 73.9 °F 60.9 °F 29.58 in Calm     63.8% 0.00 in 33 W/m2
19:49 73.2 °F 60.9 °F 29.58 in Calm     65.3% 0.00 in 30 W/m2
19:54 72.7 °F 61 °F 29.58 in Calm     66.7% 0.00 in 28 W/m2
19:59 72.3 °F 60.9 °F 29.58 in Calm     67.5% 0.00 in 32 W/m2
20:04 72 °F 61.4 °F 29.58 in Calm     69.3% 0.00 in 35 W/m2
20:09 71.8 °F 61.5 °F 29.58 in Calm     70% 0.00 in 33 W/m2
20:14 71.5 °F 61.5 °F 29.59 in Calm     70.6% 0.00 in 26 W/m2
20:19 71.2 °F 61.7 °F 29.59 in Calm     72% 0.00 in 23 W/m2
20:24 70.9 °F 61.4 °F 29.59 in Calm     72.1% 0.00 in 21 W/m2
20:29 70.7 °F 61.6 °F 29.59 in Calm     73% 0.00 in 12 W/m2
20:34 70.4 °F 61.3 °F 29.59 in Calm     73% 0.00 in 11 W/m2
20:39 69.9 °F 61.1 °F 29.59 in Calm     73.7% 0.00 in 7 W/m2
20:44 69.6 °F 61 °F 29.60 in Calm     74% 0.00 in 5 W/m2
20:49 69.3 °F 60.9 °F 29.60 in Calm     74.6% 0.00 in 5 W/m2
20:54 68.9 °F 60.7 °F 29.60 in Calm     75.1% 0.00 in 0 W/m2
20:59 68.5 °F 60.7 °F 29.61 in Calm     76% 0.00 in 0 W/m2
21:04 68.1 °F 60.8 °F 29.61 in Calm     77.3% 0.00 in 0 W/m2
21:09 67.7 °F 60.8 °F 29.61 in Calm     78.5% 0.00 in 0 W/m2
21:14 67.3 °F 60.6 °F 29.62 in Calm     79% 0.00 in 0 W/m2
21:19 67 °F 60.4 °F 29.62 in Calm     79.5% 0.00 in 0 W/m2
21:24 66.6 °F 60.3 °F 29.62 in Calm     80.2% 0.00 in 0 W/m2
21:29 66.3 °F 60.3 °F 29.62 in Calm     81% 0.00 in 0 W/m2
21:34 66 °F 60.1 °F 29.62 in Calm     81.4% 0.00 in 0 W/m2
21:39 65.6 °F 60 °F 29.62 in Calm     82.1% 0.00 in 0 W/m2
21:44 65.3 °F 60 °F 29.63 in Calm     83% 0.00 in 0 W/m2
21:49 65 °F 59.7 °F 29.63 in Calm     83% 0.00 in 0 W/m2
21:50 64.8 °F 59.5 °F 29.63 in Calm     83% 0.00 in 0 W/m2
Lisbon, New Hampshire, USA
Compliments of Weather Underground - 4 mb